createdAt,value
2023-03-26T10:43:15.411Z,958.43
2023-03-26T10:53:15.588Z,958.33
2023-03-26T11:03:15.842Z,958.34
2023-03-26T11:13:15.976Z,958.16
2023-03-26T11:23:16.042Z,958.25
2023-03-26T11:33:16.208Z,958.32
2023-03-26T11:43:16.992Z,958.37
2023-03-26T11:53:16.693Z,958.08
2023-03-26T12:03:17.015Z,958.18
2023-03-26T12:13:17.247Z,957.73
2023-03-26T12:23:17.240Z,957.73
2023-03-26T12:33:17.366Z,957.67
2023-03-26T12:44:51.385Z,957.58
2023-03-26T12:53:18.625Z,957.41
2023-03-26T13:03:17.936Z,957.34
2023-03-26T13:13:18.295Z,957.19
2023-03-26T13:23:18.301Z,956.92
2023-03-26T13:33:18.350Z,956.74
2023-03-26T13:43:18.586Z,956.84
2023-03-26T13:53:19.526Z,956.64
2023-03-26T14:03:19.122Z,956.43
2023-03-26T14:13:19.050Z,956.42
2023-03-26T14:23:19.309Z,956.25
2023-03-26T14:33:27.417Z,956.61
2023-03-26T14:43:20.584Z,956.46
2023-03-26T14:53:19.747Z,956.61
2023-03-26T15:03:19.999Z,956.40
2023-03-26T15:13:20.109Z,956.99
2023-03-26T15:23:20.320Z,957.25
2023-03-26T15:33:20.658Z,957.14
2023-03-26T15:43:20.649Z,957.21
2023-03-26T15:53:20.900Z,957.26
2023-03-26T16:03:20.976Z,957.38
2023-03-26T16:13:21.162Z,957.65
2023-03-26T16:23:21.407Z,957.78
2023-03-26T16:33:21.702Z,957.88
2023-03-26T16:43:21.847Z,957.97
2023-03-26T16:53:21.933Z,958.16
2023-03-26T17:03:22.334Z,958.05
2023-03-26T17:13:22.520Z,958.22
2023-03-26T17:23:22.408Z,958.28
2023-03-26T17:33:22.639Z,958.17
2023-03-26T17:43:22.826Z,958.19
2023-03-26T17:53:22.894Z,958.35
2023-03-26T18:03:23.224Z,958.19
2023-03-26T18:13:23.334Z,958.27
2023-03-26T18:23:23.587Z,958.41
2023-03-26T18:33:23.771Z,958.51
2023-03-26T18:43:34.512Z,958.56
2023-03-26T18:53:25.206Z,958.56
2023-03-26T19:03:24.607Z,958.47
2023-03-26T19:13:24.538Z,958.29
2023-03-26T19:23:24.782Z,958.22
2023-03-26T19:33:25.019Z,958.17
2023-03-26T19:43:25.325Z,958.10
2023-03-26T19:53:25.467Z,958.16
2023-03-26T20:03:25.663Z,958.26
2023-03-26T20:13:25.652Z,958.27
2023-03-26T20:23:25.822Z,958.26
2023-03-26T20:33:25.923Z,958.01
2023-03-26T20:43:26.080Z,958.11
2023-03-26T20:53:26.153Z,958.18
2023-03-26T21:03:26.413Z,957.98
2023-03-26T21:13:26.524Z,958.20
2023-03-26T21:23:26.855Z,958.04
2023-03-26T21:33:26.828Z,958.15
2023-03-26T21:43:27.103Z,958.13
2023-03-26T21:53:27.237Z,958.03
2023-03-26T22:03:27.379Z,957.94
2023-03-26T22:13:27.480Z,957.91
2023-03-26T22:23:27.723Z,957.96
2023-03-26T22:33:27.897Z,957.98
2023-03-26T22:43:28.148Z,958.01
2023-03-26T22:53:28.255Z,958.15
2023-03-26T23:03:35.138Z,958.25
2023-03-26T23:13:29.673Z,958.50
2023-03-26T23:23:28.911Z,958.76
2023-03-26T23:33:29.110Z,958.87
2023-03-26T23:43:29.251Z,958.96
2023-03-26T23:53:29.437Z,959.06
